createdAt,value
2018-12-01T00:01:51.925Z,99773.03
2018-12-01T00:07:10.480Z,99775.61
2018-12-01T00:12:29.021Z,99767.36
2018-12-01T00:17:47.773Z,99770.97
2018-12-01T00:23:07.382Z,99774.87
2018-12-01T00:28:26.124Z,99773.30
2018-12-01T00:33:44.630Z,99783.64
2018-12-01T00:39:03.362Z,99782.22
2018-12-01T00:44:21.901Z,99783.33
2018-12-01T00:49:40.469Z,99782.43
2018-12-01T00:54:59.082Z,99787.09
2018-12-01T01:00:23.140Z,99776.86
2018-12-01T01:05:41.741Z,99778.18
2018-12-01T01:11:00.334Z,99773.39
2018-12-01T01:16:18.894Z,99782.23
2018-12-01T01:21:37.633Z,99781.44
2018-12-01T01:26:56.113Z,99772.98
2018-12-01T01:32:14.727Z,99781.94
2018-12-01T01:37:33.331Z,99776.95
2018-12-01T01:42:51.874Z,99782.97
2018-12-01T01:48:10.359Z,99785.48
2018-12-01T01:53:28.938Z,99784.48
2018-12-01T01:58:48.004Z,99787.41
2018-12-01T02:04:06.867Z,99786.84
2018-12-01T02:09:26.245Z,99772.28
2018-12-01T02:14:44.883Z,99773.09
2018-12-01T02:20:04.222Z,99780.23
2018-12-01T02:25:22.738Z,99774.42
2018-12-01T02:30:41.399Z,99776.73
2018-12-01T02:36:00.038Z,99762.63
2018-12-01T02:41:18.559Z,99755.77
2018-12-01T02:46:48.121Z,99752.31
2018-12-01T02:52:07.453Z,99758.45
2018-12-01T02:57:26.097Z,99760.85
2018-12-01T03:02:44.644Z,99755.37
2018-12-01T03:08:03.288Z,99756.27
2018-12-01T03:13:21.831Z,99756.84
2018-12-01T03:18:40.453Z,99750.54
2018-12-01T03:23:59.000Z,99750.34
2018-12-01T03:29:17.499Z,99753.20
2018-12-01T03:34:36.059Z,99742.47
2018-12-01T03:39:54.959Z,99740.41
2018-12-01T03:45:19.291Z,99741.02
2018-12-01T03:50:38.645Z,99751.01
2018-12-01T03:55:57.405Z,99761.47
2018-12-01T04:01:16.038Z,99755.27
2018-12-01T04:06:35.144Z,99767.48
2018-12-01T04:11:53.707Z,99764.54
2018-12-01T04:17:12.233Z,99777.84
2018-12-01T04:22:30.811Z,99768.61
2018-12-01T04:27:49.372Z,99777.69
2018-12-01T04:33:07.921Z,99789.19
2018-12-01T04:38:26.405Z,99782.84
2018-12-01T04:43:45.072Z,99789.72
2018-12-01T04:49:03.681Z,99797.71
2018-12-01T04:54:22.214Z,99801.50
2018-12-01T04:59:40.752Z,99809.41
2018-12-01T05:04:59.308Z,99814.75
2018-12-01T05:10:18.817Z,99821.14
2018-12-01T05:15:37.358Z,99808.28
2018-12-01T05:20:55.973Z,99802.17
2018-12-01T05:26:14.438Z,99802.91
2018-12-01T05:31:33.035Z,99800.88
2018-12-01T05:36:51.853Z,99806.72
2018-12-01T05:42:10.438Z,99807.06
2018-12-01T05:47:29.006Z,99815.37
2018-12-01T05:52:47.664Z,99819.22
2018-12-01T05:58:06.237Z,99802.77
2018-12-01T06:03:24.849Z,99804.63
2018-12-01T06:08:43.518Z,99804.33
2018-12-01T06:14:02.202Z,99799.05
2018-12-01T06:19:20.834Z,99788.69
2018-12-01T06:24:39.356Z,99775.27
2018-12-01T06:29:57.919Z,99776.70
2018-12-01T06:35:16.478Z,99771.63
2018-12-01T06:40:35.187Z,99785.02
2018-12-01T06:45:53.693Z,99791.58
2018-12-01T06:51:12.437Z,99792.54
2018-12-01T06:56:31.013Z,99788.03
2018-12-01T07:01:49.536Z,99798.58
2018-12-01T07:07:08.051Z,99794.20
2018-12-01T07:12:26.673Z,99801.06
2018-12-01T07:17:45.196Z,99802.67
2018-12-01T07:23:03.753Z,99791.04
2018-12-01T07:28:22.275Z,99794.63
2018-12-01T07:33:40.851Z,99789.85
2018-12-01T07:38:59.398Z,99792.59
2018-12-01T07:44:17.936Z,99790.31
2018-12-01T07:49:36.472Z,99782.80
2018-12-01T07:54:54.989Z,99789.49
2018-12-01T08:00:15.105Z,99789.52
2018-12-01T08:05:33.713Z,99789.86
2018-12-01T08:10:52.327Z,99782.70
2018-12-01T08:16:11.276Z,99777.12
2018-12-01T08:26:43.892Z,99773.27
2018-12-01T08:32:02.407Z,99782.80
2018-12-01T08:37:20.924Z,99786.13
2018-12-01T08:42:39.598Z,99785.52
2018-12-01T08:47:58.191Z,99780.11
2018-12-01T08:53:16.716Z,99774.92
2018-12-01T08:58:35.250Z,99785.32
2018-12-01T09:03:53.772Z,99789.56
2018-12-01T09:09:12.378Z,99789.42
2018-12-01T09:14:30.981Z,99795.23
2018-12-01T09:19:49.764Z,99813.14
2018-12-01T09:25:09.922Z,99816.61
2018-12-01T09:30:29.942Z,99807.23
2018-12-01T09:35:48.413Z,99815.56
2018-12-01T09:41:06.941Z,99820.17
2018-12-01T09:46:25.553Z,99802.20
2018-12-01T09:51:44.120Z,99803.92
2018-12-01T09:57:02.669Z,99798.58
2018-12-01T10:02:21.252Z,99781.45
2018-12-01T10:07:39.826Z,99780.75
2018-12-01T10:12:58.953Z,99765.08
2018-12-01T10:18:17.499Z,99761.39
2018-12-01T10:23:39.052Z,99764.23
2018-12-01T10:28:58.216Z,99752.89
2018-12-01T10:34:16.827Z,99741.25
2018-12-01T10:39:35.417Z,99746.33
2018-12-01T10:44:53.933Z,99744.28
2018-12-01T10:50:14.540Z,99731.52
2018-12-01T10:55:34.601Z,99734.98
2018-12-01T11:00:58.350Z,99740.31
2018-12-01T11:06:18.151Z,99733.52
2018-12-01T11:11:37.502Z,99735.70
2018-12-01T11:16:56.004Z,99731.88
2018-12-01T11:22:14.600Z,99725.63
2018-12-01T11:27:33.336Z,99724.73
2018-12-01T11:32:51.973Z,99703.53
2018-12-01T11:38:10.665Z,99703.03
2018-12-01T11:43:29.184Z,99688.91
2018-12-01T11:48:47.785Z,99674.50
2018-12-01T11:54:06.466Z,99663.18
2018-12-01T11:59:24.989Z,99652.75
2018-12-01T12:04:43.556Z,99648.86
2018-12-01T12:10:02.254Z,99642.45
2018-12-01T12:15:21.955Z,99628.95
2018-12-01T12:20:40.553Z,99621.11
2018-12-01T12:25:59.125Z,99623.66
2018-12-01T12:31:17.993Z,99618.77
2018-12-01T12:36:36.569Z,99615.21
2018-12-01T12:41:55.904Z,99611.23
2018-12-01T12:47:14.441Z,99609.09
2018-12-01T12:52:32.967Z,99596.25
2018-12-01T12:57:51.800Z,99594.12
2018-12-01T13:03:11.545Z,99578.73
2018-12-01T13:08:30.077Z,99588.02
2018-12-01T13:13:48.681Z,99575.88
2018-12-01T13:19:07.346Z,99572.81
2018-12-01T13:24:25.875Z,99569.56
2018-12-01T13:29:44.485Z,99566.00
2018-12-01T13:35:02.984Z,99559.06
2018-12-01T13:40:21.531Z,99558.05
2018-12-01T13:45:40.187Z,99559.67
2018-12-01T13:50:58.822Z,99557.24
2018-12-01T13:56:20.875Z,99559.16
2018-12-01T14:01:36.063Z,99554.17
2018-12-01T14:06:54.666Z,99554.59
2018-12-01T14:12:13.143Z,99541.53
2018-12-01T14:17:31.688Z,99535.02
2018-12-01T14:22:50.788Z,99529.02
2018-12-01T14:28:10.917Z,99521.67
2018-12-01T14:33:29.493Z,99525.74
2018-12-01T14:38:48.093Z,99530.31
2018-12-01T14:44:06.720Z,99529.72
2018-12-01T14:49:25.256Z,99526.85
2018-12-01T14:54:43.756Z,99518.12
2018-12-01T15:00:02.435Z,99510.88
2018-12-01T15:05:21.059Z,99510.87
2018-12-01T15:10:39.720Z,99511.78
2018-12-01T15:15:58.294Z,99494.98
2018-12-01T15:21:16.961Z,99493.06
2018-12-01T15:26:35.545Z,99493.94
2018-12-01T15:31:54.147Z,99496.58
2018-12-01T15:37:12.774Z,99498.63
2018-12-01T15:42:31.292Z,99494.64
2018-12-01T15:47:49.846Z,99491.17
2018-12-01T15:53:10.481Z,99480.52
2018-12-01T15:58:29.010Z,99466.65
2018-12-01T16:03:48.334Z,99453.27
2018-12-01T16:09:09.496Z,99454.83
2018-12-01T16:14:28.128Z,99443.19
2018-12-01T16:19:46.836Z,99429.52
2018-12-01T16:25:06.966Z,99427.73
2018-12-01T16:30:28.613Z,99415.92
2018-12-01T16:35:47.569Z,99407.23
2018-12-01T16:41:12.253Z,99397.48
2018-12-01T16:46:31.652Z,99394.89
2018-12-01T16:51:50.183Z,99396.24
2018-12-01T16:57:08.716Z,99390.14
2018-12-01T17:02:27.837Z,99393.57
2018-12-01T17:07:46.797Z,99379.86
2018-12-01T17:13:07.062Z,99360.45
2018-12-01T17:18:25.681Z,99348.17
2018-12-01T17:23:44.200Z,99333.12
2018-12-01T17:29:02.789Z,99310.77
2018-12-01T17:34:22.642Z,99295.41
2018-12-01T17:39:41.416Z,99285.27
2018-12-01T17:45:00.008Z,99279.68
2018-12-01T17:50:18.829Z,99274.03
2018-12-01T17:55:37.503Z,99253.50
2018-12-01T18:00:56.052Z,99240.70
2018-12-01T18:06:15.731Z,99237.97
2018-12-01T18:11:34.245Z,99232.86
2018-12-01T18:16:52.840Z,99229.31
2018-12-01T18:22:11.429Z,99220.14
2018-12-01T18:27:31.050Z,99216.27
2018-12-01T18:32:49.963Z,99215.76
2018-12-01T18:38:09.779Z,99204.78
2018-12-01T18:43:28.923Z,99195.36
2018-12-01T18:48:47.740Z,99189.84
2018-12-01T18:54:06.603Z,99180.11
2018-12-01T18:59:25.125Z,99173.61
2018-12-01T19:04:43.757Z,99168.23
2018-12-01T19:10:03.004Z,99158.90
2018-12-01T19:15:21.761Z,99151.98
2018-12-01T19:20:40.484Z,99135.05
2018-12-01T19:25:59.158Z,99141.42
2018-12-01T19:31:18.173Z,99121.84
2018-12-01T19:36:37.828Z,99106.91
2018-12-01T19:41:56.455Z,99110.45
2018-12-01T19:47:15.014Z,99096.22
2018-12-01T19:52:33.639Z,99092.98
2018-12-01T19:57:52.765Z,99090.66
2018-12-01T20:03:14.373Z,99087.70
2018-12-01T20:08:32.982Z,99084.24
2018-12-01T20:13:52.184Z,99083.52
2018-12-01T20:19:10.828Z,99069.63
2018-12-01T20:24:29.541Z,99063.63
2018-12-01T20:29:48.397Z,99063.53
2018-12-01T20:35:07.893Z,99054.30
2018-12-01T20:40:27.093Z,99052.47
2018-12-01T20:45:46.226Z,99042.61
2018-12-01T20:51:05.130Z,99026.17
2018-12-01T20:56:25.635Z,99033.17
2018-12-01T21:01:44.990Z,99027.48
2018-12-01T21:07:04.233Z,99027.48
2018-12-01T21:12:23.372Z,99031.13
2018-12-01T21:17:43.339Z,99021.30
2018-12-01T21:23:02.373Z,99000.66
2018-12-01T21:28:20.996Z,99007.06
2018-12-01T21:33:39.587Z,98991.81
2018-12-01T21:38:58.247Z,98995.17
2018-12-01T21:44:17.406Z,98977.08
2018-12-01T21:49:36.931Z,98972.61
2018-12-01T21:54:55.611Z,98964.98
2018-12-01T22:00:20.559Z,98973.19
2018-12-01T22:05:48.698Z,98969.42
2018-12-01T22:11:08.952Z,98965.86
2018-12-01T22:16:26.922Z,98964.14
2018-12-01T22:21:45.636Z,98980.08
2018-12-01T22:27:05.052Z,98966.67
2018-12-01T22:32:23.826Z,98966.39
2018-12-01T22:37:42.581Z,98959.98
2018-12-01T22:43:05.219Z,98947.68
2018-12-01T22:48:25.415Z,98938.94
2018-12-01T22:53:44.729Z,98932.39
2018-12-01T22:59:03.458Z,98937.45
2018-12-01T23:04:23.292Z,98939.24
2018-12-01T23:09:41.992Z,98931.63
2018-12-01T23:15:00.510Z,98930.03
2018-12-01T23:20:20.974Z,98926.45
2018-12-01T23:25:39.727Z,98927.73
2018-12-01T23:30:58.292Z,98910.05
2018-12-01T23:36:17.567Z,98899.31
2018-12-01T23:41:36.643Z,98901.76
2018-12-01T23:46:55.551Z,98893.50
2018-12-01T23:52:14.138Z,98880.39
2018-12-01T23:57:33.530Z,98877.08
